sensor_id;sensor_type;location;lat;lon;timestamp;P1;durP1;ratioP1;P2;durP2;ratioP2
20207;SDS011;10263;48.716;8.760;2023-04-12T00:02:22;3.33;;;1.77;;
20207;SDS011;10263;48.716;8.760;2023-04-12T00:04:51;4.70;;;2.13;;
20207;SDS011;10263;48.716;8.760;2023-04-12T00:07:21;3.00;;;1.83;;
20207;SDS011;10263;48.716;8.760;2023-04-12T00:09:50;4.37;;;1.57;;
20207;SDS011;10263;48.716;8.760;2023-04-12T00:12:17;4.33;;;1.87;;
20207;SDS011;10263;48.716;8.760;2023-04-12T00:14:44;3.50;;;1.53;;
20207;SDS011;10263;48.716;8.760;2023-04-12T00:17:11;6.40;;;2.00;;
20207;SDS011;10263;48.716;8.760;2023-04-12T00:19:39;3.17;;;1.93;;
20207;SDS011;10263;48.716;8.760;2023-04-12T00:22:07;3.77;;;2.00;;
20207;SDS011;10263;48.716;8.760;2023-04-12T00:24:34;3.93;;;2.00;;
20207;SDS011;10263;48.716;8.760;2023-04-12T00:27:02;1.97;;;1.60;;
20207;SDS011;10263;48.716;8.760;2023-04-12T00:29:30;2.83;;;1.40;;
20207;SDS011;10263;48.716;8.760;2023-04-12T00:31:57;3.87;;;1.73;;
20207;SDS011;10263;48.716;8.760;2023-04-12T00:34:25;3.10;;;1.90;;
20207;SDS011;10263;48.716;8.760;2023-04-12T00:36:53;4.13;;;1.60;;
20207;SDS011;10263;48.716;8.760;2023-04-12T00:39:19;4.37;;;1.80;;
20207;SDS011;10263;48.716;8.760;2023-04-12T00:41:47;3.13;;;1.90;;
20207;SDS011;10263;48.716;8.760;2023-04-12T00:44:16;5.53;;;1.90;;
20207;SDS011;10263;48.716;8.760;2023-04-12T00:46:43;3.47;;;1.67;;
20207;SDS011;10263;48.716;8.760;2023-04-12T00:49:10;4.20;;;1.87;;
20207;SDS011;10263;48.716;8.760;2023-04-12T00:51:37;2.40;;;1.53;;
20207;SDS011;10263;48.716;8.760;2023-04-12T00:54:05;7.47;;;2.20;;
20207;SDS011;10263;48.716;8.760;2023-04-12T00:56:33;3.23;;;1.83;;
20207;SDS011;10263;48.716;8.760;2023-04-12T00:59:00;2.73;;;1.50;;
20207;SDS011;10263;48.716;8.760;2023-04-12T01:01:29;2.53;;;2.00;;
20207;SDS011;10263;48.716;8.760;2023-04-12T01:03:56;2.60;;;1.80;;
20207;SDS011;10263;48.716;8.760;2023-04-12T01:06:31;6.23;;;1.90;;
20207;SDS011;10263;48.716;8.760;2023-04-12T01:09:08;7.27;;;2.30;;
20207;SDS011;10263;48.716;8.760;2023-04-12T01:11:43;3.60;;;1.80;;
20207;SDS011;10263;48.716;8.760;2023-04-12T01:14:20;2.93;;;2.00;;
20207;SDS011;10263;48.716;8.760;2023-04-12T01:16:56;2.87;;;1.97;;
20207;SDS011;10263;48.716;8.760;2023-04-12T01:19:32;4.13;;;1.80;;
20207;SDS011;10263;48.716;8.760;2023-04-12T01:22:22;3.50;;;1.70;;
20207;SDS011;10263;48.716;8.760;2023-04-12T01:25:01;3.70;;;1.30;;
20207;SDS011;10263;48.716;8.760;2023-04-12T01:27:41;3.40;;;2.10;;
20207;SDS011;10263;48.716;8.760;2023-04-12T01:30:11;3.63;;;2.07;;
20207;SDS011;10263;48.716;8.760;2023-04-12T01:32:40;3.20;;;1.87;;
20207;SDS011;10263;48.716;8.760;2023-04-12T01:35:11;3.10;;;1.63;;
20207;SDS011;10263;48.716;8.760;2023-04-12T01:37:40;3.00;;;1.63;;
20207;SDS011;10263;48.716;8.760;2023-04-12T01:40:07;2.83;;;1.80;;
20207;SDS011;10263;48.716;8.760;2023-04-12T01:42:35;4.57;;;2.20;;
20207;SDS011;10263;48.716;8.760;2023-04-12T01:45:05;4.77;;;1.97;;
20207;SDS011;10263;48.716;8.760;2023-04-12T01:47:33;3.43;;;1.80;;
20207;SDS011;10263;48.716;8.760;2023-04-12T01:50:02;3.97;;;2.20;;
20207;SDS011;10263;48.716;8.760;2023-04-12T01:52:39;2.23;;;1.73;;
20207;SDS011;10263;48.716;8.760;2023-04-12T01:55:11;3.17;;;1.77;;
20207;SDS011;10263;48.716;8.760;2023-04-12T01:57:38;4.93;;;2.00;;
20207;SDS011;10263;48.716;8.760;2023-04-12T02:00:09;6.40;;;1.97;;
20207;SDS011;10263;48.716;8.760;2023-04-12T02:02:40;5.83;;;2.23;;
20207;SDS011;10263;48.716;8.760;2023-04-12T02:05:08;4.83;;;2.30;;
20207;SDS011;10263;48.716;8.760;2023-04-12T02:07:36;6.90;;;2.30;;
20207;SDS011;10263;48.716;8.760;2023-04-12T02:10:03;6.13;;;2.10;;
20207;SDS011;10263;48.716;8.760;2023-04-12T02:12:31;3.90;;;1.60;;
20207;SDS011;10263;48.716;8.760;2023-04-12T02:14:57;6.10;;;1.97;;
20207;SDS011;10263;48.716;8.760;2023-04-12T02:17:26;4.57;;;2.10;;
20207;SDS011;10263;48.716;8.760;2023-04-12T02:19:53;2.53;;;1.73;;
20207;SDS011;10263;48.716;8.760;2023-04-12T02:22:22;4.17;;;1.43;;
20207;SDS011;10263;48.716;8.760;2023-04-12T02:24:49;1.80;;;1.50;;
20207;SDS011;10263;48.716;8.760;2023-04-12T02:27:17;5.03;;;1.80;;
20207;SDS011;10263;48.716;8.760;2023-04-12T02:29:44;4.67;;;1.83;;
20207;SDS011;10263;48.716;8.760;2023-04-12T02:32:11;6.90;;;2.03;;
20207;SDS011;10263;48.716;8.760;2023-04-12T02:34:42;3.83;;;1.70;;
20207;SDS011;10263;48.716;8.760;2023-04-12T02:37:17;2.60;;;1.47;;
20207;SDS011;10263;48.716;8.760;2023-04-12T02:39:45;5.50;;;1.90;;
20207;SDS011;10263;48.716;8.760;2023-04-12T02:42:14;2.80;;;1.50;;
20207;SDS011;10263;48.716;8.760;2023-04-12T02:44:42;3.80;;;1.83;;
20207;SDS011;10263;48.716;8.760;2023-04-12T02:47:12;4.23;;;1.80;;
20207;SDS011;10263;48.716;8.760;2023-04-12T02:49:46;3.80;;;2.10;;
20207;SDS011;10263;48.716;8.760;2023-04-12T02:52:15;2.20;;;1.60;;
20207;SDS011;10263;48.716;8.760;2023-04-12T02:54:59;2.23;;;2.03;;
20207;SDS011;10263;48.716;8.760;2023-04-12T02:57:27;2.70;;;1.70;;
20207;SDS011;10263;48.716;8.760;2023-04-12T02:59:54;2.77;;;1.43;;
20207;SDS011;10263;48.716;8.760;2023-04-12T03:02:37;3.90;;;2.10;;
20207;SDS011;10263;48.716;8.760;2023-04-12T03:05:09;3.87;;;1.53;;
20207;SDS011;10263;48.716;8.760;2023-04-12T03:07:40;3.47;;;1.80;;
20207;SDS011;10263;48.716;8.760;2023-04-12T03:10:08;2.30;;;1.50;;
20207;SDS011;10263;48.716;8.760;2023-04-12T03:12:40;3.00;;;1.63;;
20207;SDS011;10263;48.716;8.760;2023-04-12T03:15:13;3.73;;;1.90;;
20207;SDS011;10263;48.716;8.760;2023-04-12T03:17:45;3.90;;;2.40;;
20207;SDS011;10263;48.716;8.760;2023-04-12T03:20:15;4.40;;;2.40;;
20207;SDS011;10263;48.716;8.760;2023-04-12T03:22:49;4.03;;;2.00;;
20207;SDS011;10263;48.716;8.760;2023-04-12T03:25:16;5.13;;;2.23;;
20207;SDS011;10263;48.716;8.760;2023-04-12T03:27:50;2.43;;;1.90;;
20207;SDS011;10263;48.716;8.760;2023-04-12T03:30:20;3.43;;;2.27;;
20207;SDS011;10263;48.716;8.760;2023-04-12T03:32:49;1.80;;;1.67;;
20207;SDS011;10263;48.716;8.760;2023-04-12T03:35:18;3.10;;;1.93;;
20207;SDS011;10263;48.716;8.760;2023-04-12T03:37:54;3.27;;;1.80;;
20207;SDS011;10263;48.716;8.760;2023-04-12T03:40:22;3.37;;;2.50;;
20207;SDS011;10263;48.716;8.760;2023-04-12T03:42:55;1.90;;;1.70;;
20207;SDS011;10263;48.716;8.760;2023-04-12T03:45:23;4.50;;;2.00;;
20207;SDS011;10263;48.716;8.760;2023-04-12T03:47:53;4.00;;;2.23;;
20207;SDS011;10263;48.716;8.760;2023-04-12T03:50:22;4.40;;;2.37;;
20207;SDS011;10263;48.716;8.760;2023-04-12T03:52:54;2.63;;;2.00;;
20207;SDS011;10263;48.716;8.760;2023-04-12T03:55:26;3.83;;;2.10;;
20207;SDS011;10263;48.716;8.760;2023-04-12T03:57:55;1.77;;;1.67;;
20207;SDS011;10263;48.716;8.760;2023-04-12T04:00:25;2.63;;;1.77;;
20207;SDS011;10263;48.716;8.760;2023-04-12T04:03:05;3.77;;;1.90;;
20207;SDS011;10263;48.716;8.760;2023-04-12T04:05:41;4.33;;;2.13;;
20207;SDS011;10263;48.716;8.760;2023-04-12T04:08:08;2.23;;;1.63;;
20207;SDS011;10263;48.716;8.760;2023-04-12T04:10:47;4.47;;;1.83;;
20207;SDS011;10263;48.716;8.760;2023-04-12T04:13:14;2.63;;;2.00;;
20207;SDS011;10263;48.716;8.760;2023-04-12T04:15:41;3.20;;;2.20;;
20207;SDS011;10263;48.716;8.760;2023-04-12T04:18:09;5.10;;;2.03;;
20207;SDS011;10263;48.716;8.760;2023-04-12T04:20:36;2.20;;;1.93;;
20207;SDS011;10263;48.716;8.760;2023-04-12T04:23:05;2.87;;;2.10;;
20207;SDS011;10263;48.716;8.760;2023-04-12T04:25:35;3.00;;;2.07;;
20207;SDS011;10263;48.716;8.760;2023-04-12T04:28:05;2.57;;;2.30;;
20207;SDS011;10263;48.716;8.760;2023-04-12T04:30:33;1.90;;;1.70;;
20207;SDS011;10263;48.716;8.760;2023-04-12T04:33:03;3.47;;;2.20;;
20207;SDS011;10263;48.716;8.760;2023-04-12T04:35:31;1.80;;;1.50;;
20207;SDS011;10263;48.716;8.760;2023-04-12T04:38:19;2.20;;;2.00;;
20207;SDS011;10263;48.716;8.760;2023-04-12T04:40:50;3.37;;;2.07;;
20207;SDS011;10263;48.716;8.760;2023-04-12T04:43:21;2.03;;;1.60;;
20207;SDS011;10263;48.716;8.760;2023-04-12T04:45:52;3.13;;;2.20;;
20207;SDS011;10263;48.716;8.760;2023-04-12T04:48:19;4.47;;;2.27;;
20207;SDS011;10263;48.716;8.760;2023-04-12T04:50:46;2.90;;;1.70;;
20207;SDS011;10263;48.716;8.760;2023-04-12T04:53:17;2.57;;;2.00;;
20207;SDS011;10263;48.716;8.760;2023-04-12T04:55:46;1.53;;;1.43;;
20207;SDS011;10263;48.716;8.760;2023-04-12T04:58:14;3.73;;;2.20;;
20207;SDS011;10263;48.716;8.760;2023-04-12T05:00:44;3.27;;;1.70;;
20207;SDS011;10263;48.716;8.760;2023-04-12T05:03:13;4.67;;;1.73;;
20207;SDS011;10263;48.716;8.760;2023-04-12T05:05:40;2.50;;;2.00;;
20207;SDS011;10263;48.716;8.760;2023-04-12T05:08:09;2.30;;;1.60;;
20207;SDS011;10263;48.716;8.760;2023-04-12T05:10:36;4.63;;;2.00;;
20207;SDS011;10263;48.716;8.760;2023-04-12T05:13:04;4.00;;;2.07;;
20207;SDS011;10263;48.716;8.760;2023-04-12T05:15:31;5.43;;;2.10;;
20207;SDS011;10263;48.716;8.760;2023-04-12T05:17:59;2.67;;;2.13;;
20207;SDS011;10263;48.716;8.760;2023-04-12T05:20:26;2.13;;;1.83;;
20207;SDS011;10263;48.716;8.760;2023-04-12T05:22:53;3.20;;;2.33;;
20207;SDS011;10263;48.716;8.760;2023-04-12T05:25:21;4.73;;;2.10;;
20207;SDS011;10263;48.716;8.760;2023-04-12T05:27:55;1.10;;;1.00;;
20207;SDS011;10263;48.716;8.760;2023-04-12T05:30:25;3.23;;;1.63;;
20207;SDS011;10263;48.716;8.760;2023-04-12T05:32:51;6.53;;;2.40;;
20207;SDS011;10263;48.716;8.760;2023-04-12T05:35:19;5.43;;;1.90;;
20207;SDS011;10263;48.716;8.760;2023-04-12T05:37:49;2.37;;;1.77;;
20207;SDS011;10263;48.716;8.760;2023-04-12T05:40:16;2.57;;;2.00;;
20207;SDS011;10263;48.716;8.760;2023-04-12T05:42:49;2.10;;;1.77;;
20207;SDS011;10263;48.716;8.760;2023-04-12T05:45:16;2.40;;;1.70;;
20207;SDS011;10263;48.716;8.760;2023-04-12T05:47:44;3.00;;;2.03;;
20207;SDS011;10263;48.716;8.760;2023-04-12T05:50:11;2.00;;;1.80;;
20207;SDS011;10263;48.716;8.760;2023-04-12T05:52:38;2.37;;;1.97;;
20207;SDS011;10263;48.716;8.760;2023-04-12T05:55:06;2.90;;;2.40;;
20207;SDS011;10263;48.716;8.760;2023-04-12T05:57:38;3.30;;;2.00;;
20207;SDS011;10263;48.716;8.760;2023-04-12T06:00:05;2.37;;;1.70;;
20207;SDS011;10263;48.716;8.760;2023-04-12T06:02:38;2.67;;;1.90;;
20207;SDS011;10263;48.716;8.760;2023-04-12T06:05:07;3.43;;;1.67;;
20207;SDS011;10263;48.716;8.760;2023-04-12T06:07:34;4.20;;;2.30;;
20207;SDS011;10263;48.716;8.760;2023-04-12T06:10:01;4.33;;;2.00;;
20207;SDS011;10263;48.716;8.760;2023-04-12T06:12:28;3.70;;;1.93;;
20207;SDS011;10263;48.716;8.760;2023-04-12T06:14:55;4.80;;;2.20;;
20207;SDS011;10263;48.716;8.760;2023-04-12T06:17:23;5.03;;;1.80;;
20207;SDS011;10263;48.716;8.760;2023-04-12T06:19:50;2.27;;;1.93;;
20207;SDS011;10263;48.716;8.760;2023-04-12T06:22:18;3.37;;;1.70;;
20207;SDS011;10263;48.716;8.760;2023-04-12T06:24:45;1.30;;;1.20;;
20207;SDS011;10263;48.716;8.760;2023-04-12T06:27:12;2.37;;;2.10;;
20207;SDS011;10263;48.716;8.760;2023-04-12T06:29:39;3.37;;;1.87;;
20207;SDS011;10263;48.716;8.760;2023-04-12T06:32:07;3.00;;;2.03;;
20207;SDS011;10263;48.716;8.760;2023-04-12T06:34:34;3.07;;;2.23;;
20207;SDS011;10263;48.716;8.760;2023-04-12T06:37:06;4.60;;;2.37;;
20207;SDS011;10263;48.716;8.760;2023-04-12T06:39:34;2.20;;;2.00;;
20207;SDS011;10263;48.716;8.760;2023-04-12T06:42:01;3.23;;;2.07;;
20207;SDS011;10263;48.716;8.760;2023-04-12T06:44:27;2.97;;;1.83;;
20207;SDS011;10263;48.716;8.760;2023-04-12T06:46:54;2.60;;;2.03;;
20207;SDS011;10263;48.716;8.760;2023-04-12T06:49:21;3.10;;;2.37;;
20207;SDS011;10263;48.716;8.760;2023-04-12T06:51:48;3.07;;;2.20;;
20207;SDS011;10263;48.716;8.760;2023-04-12T06:54:15;2.40;;;2.20;;
20207;SDS011;10263;48.716;8.760;2023-04-12T06:56:44;2.60;;;2.37;;
20207;SDS011;10263;48.716;8.760;2023-04-12T06:59:10;3.13;;;2.30;;
20207;SDS011;10263;48.716;8.760;2023-04-12T07:01:37;3.93;;;2.77;;
20207;SDS011;10263;48.716;8.760;2023-04-12T07:04:04;3.30;;;2.43;;
20207;SDS011;10263;48.716;8.760;2023-04-12T07:06:31;4.47;;;2.20;;
20207;SDS011;10263;48.716;8.760;2023-04-12T07:08:58;3.43;;;2.20;;
20207;SDS011;10263;48.716;8.760;2023-04-12T07:11:25;1.73;;;1.30;;
20207;SDS011;10263;48.716;8.760;2023-04-12T07:13:54;3.67;;;2.10;;
20207;SDS011;10263;48.716;8.760;2023-04-12T07:16:23;3.53;;;2.67;;
20207;SDS011;10263;48.716;8.760;2023-04-12T07:18:50;3.10;;;2.03;;
20207;SDS011;10263;48.716;8.760;2023-04-12T07:21:17;2.50;;;1.87;;
20207;SDS011;10263;48.716;8.760;2023-04-12T07:23:45;2.33;;;1.73;;
20207;SDS011;10263;48.716;8.760;2023-04-12T07:26:15;3.67;;;2.17;;
20207;SDS011;10263;48.716;8.760;2023-04-12T07:28:42;1.27;;;1.17;;
20207;SDS011;10263;48.716;8.760;2023-04-12T07:31:10;1.57;;;1.47;;
20207;SDS011;10263;48.716;8.760;2023-04-12T07:33:37;1.63;;;1.53;;
20207;SDS011;10263;48.716;8.760;2023-04-12T07:36:05;2.70;;;1.53;;
20207;SDS011;10263;48.716;8.760;2023-04-12T07:38:32;3.60;;;2.00;;
20207;SDS011;10263;48.716;8.760;2023-04-12T07:40:59;2.27;;;1.67;;
20207;SDS011;10263;48.716;8.760;2023-04-12T07:43:26;2.20;;;1.60;;
20207;SDS011;10263;48.716;8.760;2023-04-12T07:45:53;2.67;;;1.17;;
20207;SDS011;10263;48.716;8.760;2023-04-12T07:48:22;2.50;;;1.40;;
20207;SDS011;10263;48.716;8.760;2023-04-12T07:50:49;1.47;;;1.37;;
20207;SDS011;10263;48.716;8.760;2023-04-12T07:53:16;2.50;;;1.60;;
20207;SDS011;10263;48.716;8.760;2023-04-12T07:55:44;3.20;;;1.50;;
20207;SDS011;10263;48.716;8.760;2023-04-12T07:58:11;2.53;;;1.50;;
20207;SDS011;10263;48.716;8.760;2023-04-12T08:00:38;3.53;;;1.70;;
20207;SDS011;10263;48.716;8.760;2023-04-12T08:03:05;1.23;;;1.00;;
20207;SDS011;10263;48.716;8.760;2023-04-12T08:05:34;3.50;;;1.80;;
20207;SDS011;10263;48.716;8.760;2023-04-12T08:08:01;1.50;;;1.40;;
20207;SDS011;10263;48.716;8.760;2023-04-12T08:10:28;2.83;;;1.33;;
20207;SDS011;10263;48.716;8.760;2023-04-12T08:12:56;1.73;;;1.10;;
20207;SDS011;10263;48.716;8.760;2023-04-12T08:15:23;4.63;;;1.70;;
20207;SDS011;10263;48.716;8.760;2023-04-12T08:17:49;1.87;;;1.20;;
20207;SDS011;10263;48.716;8.760;2023-04-12T08:20:17;1.53;;;1.43;;
20207;SDS011;10263;48.716;8.760;2023-04-12T08:22:45;2.67;;;1.43;;
20207;SDS011;10263;48.716;8.760;2023-04-12T08:25:12;1.93;;;1.30;;
20207;SDS011;10263;48.716;8.760;2023-04-12T08:27:40;2.03;;;1.50;;
20207;SDS011;10263;48.716;8.760;2023-04-12T08:30:08;3.03;;;1.37;;
20207;SDS011;10263;48.716;8.760;2023-04-12T08:32:36;1.67;;;1.57;;
20207;SDS011;10263;48.716;8.760;2023-04-12T08:35:03;1.50;;;1.37;;
20207;SDS011;10263;48.716;8.760;2023-04-12T08:37:30;2.70;;;1.50;;
20207;SDS011;10263;48.716;8.760;2023-04-12T08:40:01;4.53;;;1.70;;
20207;SDS011;10263;48.716;8.760;2023-04-12T08:42:29;3.30;;;1.40;;
20207;SDS011;10263;48.716;8.760;2023-04-12T08:44:57;4.23;;;1.70;;
20207;SDS011;10263;48.716;8.760;2023-04-12T08:47:24;1.57;;;1.40;;
20207;SDS011;10263;48.716;8.760;2023-04-12T08:49:51;2.40;;;1.60;;
20207;SDS011;10263;48.716;8.760;2023-04-12T08:52:19;3.43;;;2.30;;
20207;SDS011;10263;48.716;8.760;2023-04-12T08:54:46;4.37;;;1.40;;
20207;SDS011;10263;48.716;8.760;2023-04-12T08:57:14;2.23;;;1.90;;
20207;SDS011;10263;48.716;8.760;2023-04-12T08:59:44;1.90;;;1.67;;
20207;SDS011;10263;48.716;8.760;2023-04-12T09:02:14;2.50;;;1.77;;
20207;SDS011;10263;48.716;8.760;2023-04-12T09:04:48;2.73;;;1.87;;
20207;SDS011;10263;48.716;8.760;2023-04-12T09:07:16;2.63;;;1.80;;
20207;SDS011;10263;48.716;8.760;2023-04-12T09:09:43;3.47;;;1.80;;
20207;SDS011;10263;48.716;8.760;2023-04-12T09:12:11;2.87;;;1.97;;
20207;SDS011;10263;48.716;8.760;2023-04-12T09:14:40;3.37;;;1.90;;
20207;SDS011;10263;48.716;8.760;2023-04-12T09:17:21;2.97;;;2.00;;
20207;SDS011;10263;48.716;8.760;2023-04-12T09:19:49;2.63;;;2.13;;
20207;SDS011;10263;48.716;8.760;2023-04-12T09:22:16;3.27;;;2.53;;
20207;SDS011;10263;48.716;8.760;2023-04-12T09:24:47;2.73;;;2.07;;
20207;SDS011;10263;48.716;8.760;2023-04-12T09:27:17;2.50;;;1.90;;
20207;SDS011;10263;48.716;8.760;2023-04-12T09:29:47;4.07;;;2.10;;
20207;SDS011;10263;48.716;8.760;2023-04-12T09:32:23;2.13;;;1.40;;
20207;SDS011;10263;48.716;8.760;2023-04-12T09:34:53;2.93;;;1.47;;
20207;SDS011;10263;48.716;8.760;2023-04-12T09:37:21;4.13;;;1.57;;
20207;SDS011;10263;48.716;8.760;2023-04-12T09:39:52;3.07;;;2.77;;
20207;SDS011;10263;48.716;8.760;2023-04-12T09:42:24;3.37;;;2.00;;
20207;SDS011;10263;48.716;8.760;2023-04-12T09:44:53;4.17;;;2.23;;
20207;SDS011;10263;48.716;8.760;2023-04-12T09:47:21;3.03;;;1.83;;
20207;SDS011;10263;48.716;8.760;2023-04-12T09:49:49;1.90;;;1.70;;
20207;SDS011;10263;48.716;8.760;2023-04-12T09:52:16;3.03;;;1.90;;
20207;SDS011;10263;48.716;8.760;2023-04-12T09:54:43;2.57;;;1.60;;
20207;SDS011;10263;48.716;8.760;2023-04-12T09:57:12;3.90;;;1.53;;
20207;SDS011;10263;48.716;8.760;2023-04-12T09:59:41;2.17;;;1.40;;
20207;SDS011;10263;48.716;8.760;2023-04-12T10:02:14;5.07;;;1.30;;
20207;SDS011;10263;48.716;8.760;2023-04-12T10:04:42;1.80;;;1.40;;
20207;SDS011;10263;48.716;8.760;2023-04-12T10:07:10;5.07;;;1.40;;
20207;SDS011;10263;48.716;8.760;2023-04-12T10:09:38;2.10;;;1.50;;
20207;SDS011;10263;48.716;8.760;2023-04-12T10:12:06;2.27;;;1.40;;
20207;SDS011;10263;48.716;8.760;2023-04-12T10:14:35;2.07;;;1.50;;
20207;SDS011;10263;48.716;8.760;2023-04-12T10:17:03;2.47;;;1.50;;
20207;SDS011;10263;48.716;8.760;2023-04-12T10:19:31;3.23;;;1.30;;
20207;SDS011;10263;48.716;8.760;2023-04-12T10:21:58;2.63;;;1.50;;
20207;SDS011;10263;48.716;8.760;2023-04-12T10:24:26;2.73;;;1.30;;
20207;SDS011;10263;48.716;8.760;2023-04-12T10:26:54;1.90;;;1.20;;
20207;SDS011;10263;48.716;8.760;2023-04-12T10:29:24;2.83;;;1.30;;
20207;SDS011;10263;48.716;8.760;2023-04-12T10:31:52;2.70;;;1.17;;
20207;SDS011;10263;48.716;8.760;2023-04-12T10:34:22;1.67;;;1.37;;
20207;SDS011;10263;48.716;8.760;2023-04-12T10:36:54;1.37;;;1.10;;
20207;SDS011;10263;48.716;8.760;2023-04-12T10:39:38;1.53;;;1.03;;
20207;SDS011;10263;48.716;8.760;2023-04-12T10:42:14;2.57;;;1.53;;
20207;SDS011;10263;48.716;8.760;2023-04-12T10:44:46;2.43;;;1.10;;
20207;SDS011;10263;48.716;8.760;2023-04-12T10:47:14;2.63;;;1.40;;
20207;SDS011;10263;48.716;8.760;2023-04-12T10:52:39;1.73;;;1.20;;
20207;SDS011;10263;48.716;8.760;2023-04-12T10:57:53;3.80;;;1.23;;
20207;SDS011;10263;48.716;8.760;2023-04-12T11:00:21;1.40;;;1.20;;
20207;SDS011;10263;48.716;8.760;2023-04-12T11:03:04;2.73;;;1.33;;
20207;SDS011;10263;48.716;8.760;2023-04-12T11:08:56;2.83;;;1.10;;
20207;SDS011;10263;48.716;8.760;2023-04-12T11:11:24;2.93;;;1.27;;
20207;SDS011;10263;48.716;8.760;2023-04-12T11:13:53;2.40;;;1.50;;
20207;SDS011;10263;48.716;8.760;2023-04-12T11:16:21;1.47;;;0.97;;
20207;SDS011;10263;48.716;8.760;2023-04-12T11:18:48;2.53;;;1.27;;
20207;SDS011;10263;48.716;8.760;2023-04-12T11:21:15;1.03;;;0.93;;
20207;SDS011;10263;48.716;8.760;2023-04-12T11:23:43;1.27;;;1.13;;
20207;SDS011;10263;48.716;8.760;2023-04-12T11:26:12;4.20;;;1.13;;
20207;SDS011;10263;48.716;8.760;2023-04-12T11:28:45;1.03;;;0.93;;
20207;SDS011;10263;48.716;8.760;2023-04-12T11:31:12;0.93;;;0.87;;
20207;SDS011;10263;48.716;8.760;2023-04-12T11:33:39;1.80;;;1.20;;
20207;SDS011;10263;48.716;8.760;2023-04-12T11:36:07;3.23;;;1.17;;
20207;SDS011;10263;48.716;8.760;2023-04-12T11:38:36;1.57;;;0.90;;
20207;SDS011;10263;48.716;8.760;2023-04-12T11:41:03;3.00;;;1.00;;
20207;SDS011;10263;48.716;8.760;2023-04-12T11:43:32;2.37;;;1.07;;
20207;SDS011;10263;48.716;8.760;2023-04-12T11:46:00;1.70;;;0.90;;
20207;SDS011;10263;48.716;8.760;2023-04-12T11:48:27;1.43;;;0.80;;
20207;SDS011;10263;48.716;8.760;2023-04-12T11:50:54;1.00;;;0.90;;
20207;SDS011;10263;48.716;8.760;2023-04-12T11:53:25;2.13;;;0.90;;
20207;SDS011;10263;48.716;8.760;2023-04-12T11:55:53;0.90;;;0.90;;
20207;SDS011;10263;48.716;8.760;2023-04-12T11:58:21;1.63;;;0.90;;
20207;SDS011;10263;48.716;8.760;2023-04-12T12:00:50;2.10;;;1.00;;
20207;SDS011;10263;48.716;8.760;2023-04-12T12:03:17;0.88;;;0.80;;
20207;SDS011;10263;48.716;8.760;2023-04-12T12:05:44;1.45;;;0.90;;
20207;SDS011;10263;48.716;8.760;2023-04-12T12:08:12;2.38;;;1.20;;
20207;SDS011;10263;48.716;8.760;2023-04-12T12:10:39;1.55;;;0.90;;
20207;SDS011;10263;48.716;8.760;2023-04-12T12:13:09;0.83;;;0.80;;
20207;SDS011;10263;48.716;8.760;2023-04-12T12:15:36;1.50;;;1.00;;
20207;SDS011;10263;48.716;8.760;2023-04-12T12:18:06;2.93;;;1.23;;
20207;SDS011;10263;48.716;8.760;2023-04-12T12:20:38;1.42;;;0.90;;
20207;SDS011;10263;48.716;8.760;2023-04-12T12:23:06;0.85;;;0.70;;
20207;SDS011;10263;48.716;8.760;2023-04-12T12:25:33;3.30;;;1.00;;
20207;SDS011;10263;48.716;8.760;2023-04-12T12:28:00;1.45;;;1.00;;
20207;SDS011;10263;48.716;8.760;2023-04-12T12:30:29;1.17;;;0.90;;
20207;SDS011;10263;48.716;8.760;2023-04-12T12:32:57;0.75;;;0.70;;
20207;SDS011;10263;48.716;8.760;2023-04-12T12:35:25;1.13;;;0.95;;
20207;SDS011;10263;48.716;8.760;2023-04-12T12:37:54;3.03;;;1.20;;
20207;SDS011;10263;48.716;8.760;2023-04-12T12:40:29;1.10;;;1.00;;
20207;SDS011;10263;48.716;8.760;2023-04-12T12:42:57;1.58;;;0.90;;
20207;SDS011;10263;48.716;8.760;2023-04-12T12:45:25;1.67;;;0.90;;
20207;SDS011;10263;48.716;8.760;2023-04-12T12:47:53;1.10;;;0.82;;
20207;SDS011;10263;48.716;8.760;2023-04-12T12:50:21;0.93;;;0.80;;
20207;SDS011;10263;48.716;8.760;2023-04-12T12:52:51;1.77;;;1.15;;
20207;SDS011;10263;48.716;8.760;2023-04-12T12:55:19;1.15;;;1.00;;
20207;SDS011;10263;48.716;8.760;2023-04-12T12:57:46;1.85;;;0.90;;
20207;SDS011;10263;48.716;8.760;2023-04-12T13:00:14;0.80;;;0.80;;
20207;SDS011;10263;48.716;8.760;2023-04-12T13:02:42;1.98;;;1.00;;
20207;SDS011;10263;48.716;8.760;2023-04-12T13:05:09;1.67;;;0.90;;
20207;SDS011;10263;48.716;8.760;2023-04-12T13:07:37;0.82;;;0.82;;
20207;SDS011;10263;48.716;8.760;2023-04-12T13:10:06;2.63;;;0.77;;
20207;SDS011;10263;48.716;8.760;2023-04-12T13:12:33;1.85;;;1.25;;
20207;SDS011;10263;48.716;8.760;2023-04-12T13:15:00;1.47;;;1.03;;
20207;SDS011;10263;48.716;8.760;2023-04-12T13:17:28;1.13;;;0.90;;
20207;SDS011;10263;48.716;8.760;2023-04-12T13:19:55;3.10;;;1.17;;
20207;SDS011;10263;48.716;8.760;2023-04-12T13:22:23;1.10;;;0.90;;
20207;SDS011;10263;48.716;8.760;2023-04-12T13:24:51;1.10;;;1.00;;
20207;SDS011;10263;48.716;8.760;2023-04-12T13:27:20;3.85;;;0.90;;
20207;SDS011;10263;48.716;8.760;2023-04-12T13:29:47;1.02;;;0.80;;
20207;SDS011;10263;48.716;8.760;2023-04-12T13:32:14;0.80;;;0.73;;
20207;SDS011;10263;48.716;8.760;2023-04-12T13:34:42;1.42;;;1.05;;
20207;SDS011;10263;48.716;8.760;2023-04-12T13:37:10;2.20;;;1.00;;
20207;SDS011;10263;48.716;8.760;2023-04-12T13:39:36;1.03;;;0.80;;
20207;SDS011;10263;48.716;8.760;2023-04-12T13:42:04;2.38;;;0.90;;
20207;SDS011;10263;48.716;8.760;2023-04-12T13:44:33;1.50;;;0.82;;
20207;SDS011;10263;48.716;8.760;2023-04-12T13:47:00;0.70;;;0.70;;
20207;SDS011;10263;48.716;8.760;2023-04-12T13:49:27;1.08;;;0.70;;
20207;SDS011;10263;48.716;8.760;2023-04-12T13:51:54;2.08;;;1.08;;
20207;SDS011;10263;48.716;8.760;2023-04-12T13:54:21;1.00;;;0.80;;
20207;SDS011;10263;48.716;8.760;2023-04-12T13:56:48;1.20;;;0.70;;
20207;SDS011;10263;48.716;8.760;2023-04-12T13:59:15;3.93;;;0.70;;
20207;SDS011;10263;48.716;8.760;2023-04-12T14:01:44;1.40;;;1.10;;
20207;SDS011;10263;48.716;8.760;2023-04-12T14:04:11;3.30;;;1.10;;
20207;SDS011;10263;48.716;8.760;2023-04-12T14:06:39;2.47;;;1.17;;
20207;SDS011;10263;48.716;8.760;2023-04-12T14:09:06;1.10;;;1.00;;
20207;SDS011;10263;48.716;8.760;2023-04-12T14:11:46;1.00;;;0.80;;
20207;SDS011;10263;48.716;8.760;2023-04-12T14:14:13;0.60;;;0.60;;
20207;SDS011;10263;48.716;8.760;2023-04-12T14:16:40;1.42;;;0.73;;
20207;SDS011;10263;48.716;8.760;2023-04-12T14:19:10;0.50;;;0.50;;
20207;SDS011;10263;48.716;8.760;2023-04-12T14:21:36;1.23;;;0.77;;
20207;SDS011;10263;48.716;8.760;2023-04-12T14:24:04;1.27;;;0.77;;
20207;SDS011;10263;48.716;8.760;2023-04-12T14:26:31;1.38;;;0.60;;
20207;SDS011;10263;48.716;8.760;2023-04-12T14:28:58;0.82;;;0.70;;
20207;SDS011;10263;48.716;8.760;2023-04-12T14:31:25;1.25;;;0.80;;
20207;SDS011;10263;48.716;8.760;2023-04-12T14:33:52;0.77;;;0.77;;
20207;SDS011;10263;48.716;8.760;2023-04-12T14:36:21;1.17;;;0.73;;
20207;SDS011;10263;48.716;8.760;2023-04-12T14:38:47;0.70;;;0.70;;
20207;SDS011;10263;48.716;8.760;2023-04-12T14:41:15;1.08;;;0.60;;
20207;SDS011;10263;48.716;8.760;2023-04-12T14:43:42;1.23;;;0.60;;
20207;SDS011;10263;48.716;8.760;2023-04-12T14:46:10;0.95;;;0.65;;
20207;SDS011;10263;48.716;8.760;2023-04-12T14:48:37;1.27;;;0.75;;
20207;SDS011;10263;48.716;8.760;2023-04-12T14:51:04;0.90;;;0.80;;
20207;SDS011;10263;48.716;8.760;2023-04-12T14:53:32;1.90;;;0.90;;
20207;SDS011;10263;48.716;8.760;2023-04-12T14:55:59;2.47;;;0.60;;
20207;SDS011;10263;48.716;8.760;2023-04-12T14:58:26;0.83;;;0.70;;
20207;SDS011;10263;48.716;8.760;2023-04-12T15:00:54;1.13;;;0.50;;
20207;SDS011;10263;48.716;8.760;2023-04-12T15:03:22;0.40;;;0.40;;
20207;SDS011;10263;48.716;8.760;2023-04-12T15:05:50;0.73;;;0.50;;
20207;SDS011;10263;48.716;8.760;2023-04-12T15:08:17;0.37;;;0.37;;